Waggoner, Illinois
Current Conditions -  °F | °C
As of 3:15 AM on Thursday 23 Oct 2014 (Local Time) from K3LF Reporting Station
Clear Clear  
Wind Chill: 40°   Ceiling: Unl
Heat Index: 40°   Visibility: 10mi
Dew Point: 36°   Wind: 0mph
Humidity: 85%   Direction: NA
Pressure: 30.23"   Gusts: NA
Location:  39.38°N, 89.65°W
Report Text: K3LF 230815Z AUTO 00000KT 10SM CLR 05/02 A3023 RMK AO2 T00450021
Loading
Personal Weather Stations






























Interactive Weather Map
Tropical Storm Tracking
New forecast layout! Learn more

10-Day Weather Forecast

Advertisements
Track Severe Weather on mobile